Time;durP1;ratioP1;P1;durP2;ratioP2;P2;SDS_P1;SDS_P2;PMS_P1;PMS_P2;Temp;Humidity;BMP_temperature;BMP_pressure;BME280_temperature;BME280_humidity;BME280_pressure;Samples;Min_cycle;Max_cycle;Signal;HPM_P1;HPM_P2
2022/04/24 00:01:34;;;;;;;;;;;9.60;99.90;;;;;;5008100;28;19926;-70
2022/04/24 00:04:00;;;;;;;;;;;9.50;99.90;;;;;;5004836;28;19925;-70
2022/04/24 00:06:26;;;;;;;;;;;9.50;99.90;;;;;;4989017;28;19926;-69
2022/04/24 00:08:52;;;;;;;;;;;9.50;99.90;;;;;;5003409;28;19925;-69
2022/04/24 00:11:18;;;;;;;;;;;9.50;99.90;;;;;;5008296;28;19928;-69
2022/04/24 00:13:45;;;;;;;;;;;9.50;99.90;;;;;;5001828;28;19926;-69
2022/04/24 00:16:10;;;;;;;;;;;9.40;99.90;;;;;;4993850;28;19928;-69
2022/04/24 00:18:38;;;;;;;;;;;9.40;99.90;;;;;;4993749;28;19922;-69
2022/04/24 00:21:04;;;;;;;;;;;9.40;99.90;;;;;;5010436;28;19921;-69
2022/04/24 00:23:30;;;;;;;;;;;9.30;99.90;;;;;;5012741;28;19969;-68
2022/04/24 00:25:56;;;;;;;;;;;9.30;99.90;;;;;;5007053;28;19975;-68
2022/04/24 00:28:21;;;;;;;;;;;9.30;99.90;;;;;;5004147;28;20336;-69
2022/04/24 00:30:47;;;;;;;;;;;9.30;99.90;;;;;;5001879;28;19922;-68
2022/04/24 00:33:12;;;;;;;;;;;9.20;99.90;;;;;;5011603;28;19928;-68
2022/04/24 00:35:38;;;;;;;;;;;9.20;99.90;;;;;;5008511;28;19928;-69
2022/04/24 00:38:03;;;;;;;;;;;9.30;99.90;;;;;;4997402;28;19921;-69
2022/04/24 00:40:29;;;;;;;;;;;9.10;99.90;;;;;;5011470;28;20377;-68
2022/04/24 00:42:55;;;;;;;;;;;9.10;99.90;;;;;;5007216;28;19925;-70
2022/04/24 00:45:20;;;;;;;;;;;9.10;99.90;;;;;;5009792;28;19928;-69
2022/04/24 00:47:46;;;;;;;;;;;9.10;99.90;;;;;;4998479;28;19921;-69
2022/04/24 00:50:11;;;;;;;;;;;9.40;99.90;;;;;;4999290;28;19928;-68
2022/04/24 00:52:37;;;;;;;;;;;9.10;99.90;;;;;;5000799;28;19921;-69
2022/04/24 00:55:03;;;;;;;;;;;9.00;99.90;;;;;;5020896;28;19928;-70
2022/04/24 00:57:29;;;;;;;;;;;9.00;99.90;;;;;;5006665;28;20429;-68
2022/04/24 00:59:55;;;;;;;;;;;9.00;99.90;;;;;;5000914;28;19922;-71
2022/04/24 01:02:21;;;;;;;;;;;8.90;99.90;;;;;;5012676;28;19921;-69
2022/04/24 01:04:47;;;;;;;;;;;9.00;99.90;;;;;;5013219;28;19932;-70
2022/04/24 01:07:13;;;;;;;;;;;8.90;99.90;;;;;;5011540;28;19922;-68
2022/04/24 01:09:39;;;;;;;;;;;8.90;99.90;;;;;;5005785;28;19976;-68
2022/04/24 01:12:06;;;;;;;;;;;8.80;99.90;;;;;;4993833;28;19921;-69
2022/04/24 01:14:32;;;;;;;;;;;8.80;99.90;;;;;;5008915;28;19933;-69
2022/04/24 01:16:58;;;;;;;;;;;8.80;99.90;;;;;;4996832;28;19984;-68
2022/04/24 01:19:25;;;;;;;;;;;8.80;99.90;;;;;;5006089;28;19921;-69
2022/04/24 01:21:51;;;;;;;;;;;8.70;99.90;;;;;;4987837;28;20430;-69
2022/04/24 01:24:19;;;;;;;;;;;8.70;99.90;;;;;;5010948;28;19975;-69
2022/04/24 01:26:45;;;;;;;;;;;8.60;99.90;;;;;;5000308;28;19922;-69
2022/04/24 01:29:11;;;;;;;;;;;8.60;99.90;;;;;;4998720;28;19929;-69
2022/04/24 01:31:37;;;;;;;;;;;8.50;99.90;;;;;;4997442;28;19921;-69
2022/04/24 01:34:03;;;;;;;;;;;8.40;99.90;;;;;;5007636;28;20338;-69
2022/04/24 01:36:29;;;;;;;;;;;8.40;99.90;;;;;;4994898;28;19928;-68
2022/04/24 01:38:54;;;;;;;;;;;8.30;99.90;;;;;;4993536;28;20536;-70
2022/04/24 01:41:20;;;;;;;;;;;8.30;99.90;;;;;;5014553;28;19921;-69
2022/04/24 01:43:46;;;;;;;;;;;8.30;99.90;;;;;;5004756;28;20344;-68
2022/04/24 01:46:12;;;;;;;;;;;8.20;99.90;;;;;;5004233;28;19922;-69
2022/04/24 01:48:38;;;;;;;;;;;8.20;99.90;;;;;;5006003;28;19921;-69
2022/04/24 01:51:05;;;;;;;;;;;8.10;99.90;;;;;;5003622;28;19928;-69
2022/04/24 01:53:31;;;;;;;;;;;8.10;99.90;;;;;;5009850;28;19921;-69
2022/04/24 01:55:57;;;;;;;;;;;8.10;99.90;;;;;;5010298;28;20007;-69
2022/04/24 01:58:23;;;;;;;;;;;8.10;99.90;;;;;;5008598;28;19929;-68
2022/04/24 02:00:49;;;;;;;;;;;8.00;99.90;;;;;;5014376;28;20263;-69
2022/04/24 02:03:15;;;;;;;;;;;9.00;99.90;;;;;;5002404;28;19922;-70
2022/04/24 02:05:40;;;;;;;;;;;7.80;99.90;;;;;;5011461;28;19921;-68
2022/04/24 02:08:06;;;;;;;;;;;7.80;99.90;;;;;;5005882;28;19921;-69
2022/04/24 02:10:32;;;;;;;;;;;7.80;99.90;;;;;;5007716;28;19932;-70
2022/04/24 02:12:58;;;;;;;;;;;7.80;99.90;;;;;;5009404;28;19929;-70
2022/04/24 02:15:23;;;;;;;;;;;7.70;99.90;;;;;;5002845;28;19925;-70
2022/04/24 02:17:49;;;;;;;;;;;7.60;99.90;;;;;;5000690;28;19968;-68
2022/04/24 02:20:15;;;;;;;;;;;7.60;99.90;;;;;;5008062;28;20368;-68
2022/04/24 02:22:40;;;;;;;;;;;7.60;99.90;;;;;;5007436;28;19965;-69
2022/04/24 02:25:06;;;;;;;;;;;7.60;99.90;;;;;;5010761;28;19929;-68
2022/04/24 02:27:32;;;;;;;;;;;7.60;99.90;;;;;;5006368;28;19921;-69
2022/04/24 02:29:57;;;;;;;;;;;7.60;99.90;;;;;;5014271;28;20008;-69
2022/04/24 02:32:23;;;;;;;;;;;8.60;99.90;;;;;;5011203;28;19925;-69
2022/04/24 02:34:48;;;;;;;;;;;7.50;99.90;;;;;;5009035;28;19921;-69
2022/04/24 02:37:14;;;;;;;;;;;7.50;99.90;;;;;;5009948;28;20387;-68
2022/04/24 02:39:40;;;;;;;;;;;7.50;99.90;;;;;;5012891;28;19922;-69
2022/04/24 02:42:05;;;;;;;;;;;7.40;99.90;;;;;;5011171;28;19932;-69
2022/04/24 02:44:31;;;;;;;;;;;7.40;99.90;;;;;;4993975;28;19926;-69
2022/04/24 02:46:56;;;;;;;;;;;7.40;99.90;;;;;;5002886;28;19926;-69
2022/04/24 02:49:22;;;;;;;;;;;7.40;99.90;;;;;;5012046;28;20287;-69
2022/04/24 02:51:47;;;;;;;;;;;8.30;99.90;;;;;;5011703;28;19929;-69
2022/04/24 02:54:13;;;;;;;;;;;7.40;99.90;;;;;;5000762;28;19928;-68
2022/04/24 02:56:39;;;;;;;;;;;7.30;99.90;;;;;;5011598;28;20255;-69
2022/04/24 02:59:05;;;;;;;;;;;7.30;99.90;;;;;;5001087;28;19929;-69
2022/04/24 03:01:30;;;;;;;;;;;7.30;99.90;;;;;;5005216;28;19925;-69
2022/04/24 03:03:56;;;;;;;;;;;7.90;99.90;;;;;;5012362;28;19975;-69
2022/04/24 03:06:22;;;;;;;;;;;7.30;99.90;;;;;;5008658;28;20318;-69
2022/04/24 03:08:48;;;;;;;;;;;7.20;99.90;;;;;;4993667;28;20000;-69
2022/04/24 03:11:17;;;;;;;;;;;7.20;99.90;;;;;;5007588;28;20004;-69
2022/04/24 03:13:42;;;;;;;;;;;8.40;99.90;;;;;;5003397;28;20371;-69
2022/04/24 03:16:11;;;;;;;;;;;7.20;99.90;;;;;;5011829;28;19929;-69
2022/04/24 03:18:36;;;;;;;;;;;7.20;99.90;;;;;;5011852;28;19921;-70
2022/04/24 03:21:02;;;;;;;;;;;7.70;99.90;;;;;;5000862;28;20368;-70
2022/04/24 03:23:27;;;;;;;;;;;7.20;99.90;;;;;;5013513;28;19928;-69
2022/04/24 03:25:53;;;;;;;;;;;7.20;99.90;;;;;;5006064;28;19925;-68
2022/04/24 03:28:18;;;;;;;;;;;8.10;99.90;;;;;;5012827;28;19925;-68
2022/04/24 03:30:44;;;;;;;;;;;7.10;99.90;;;;;;5009119;28;19965;-68
2022/04/24 03:33:10;;;;;;;;;;;7.20;99.90;;;;;;5005517;28;19921;-69
2022/04/24 03:35:36;;;;;;;;;;;7.30;99.90;;;;;;4997370;28;19968;-69
2022/04/24 03:38:01;;;;;;;;;;;7.10;99.90;;;;;;5005116;28;19926;-68
2022/04/24 03:40:27;;;;;;;;;;;7.10;99.90;;;;;;5011140;28;19928;-68
2022/04/24 03:42:53;;;;;;;;;;;7.10;99.90;;;;;;5012174;28;19949;-69
2022/04/24 03:45:18;;;;;;;;;;;7.10;99.90;;;;;;5008578;28;19925;-68
2022/04/24 03:47:44;;;;;;;;;;;7.00;99.90;;;;;;5001399;28;19921;-69
2022/04/24 03:50:09;;;;;;;;;;;7.00;99.90;;;;;;5011453;28;20286;-69
2022/04/24 03:52:35;;;;;;;;;;;7.00;99.90;;;;;;5017496;28;20347;-69
2022/04/24 03:55:01;;;;;;;;;;;7.00;99.90;;;;;;5013680;28;19925;-68
2022/04/24 03:57:27;;;;;;;;;;;7.20;99.90;;;;;;5012954;28;19921;-69
2022/04/24 03:59:52;;;;;;;;;;;6.90;99.90;;;;;;5011558;28;19968;-68
2022/04/24 04:02:18;;;;;;;;;;;7.60;99.90;;;;;;5013410;28;19928;-69
2022/04/24 04:04:43;;;;;;;;;;;6.90;99.90;;;;;;5009003;28;19931;-69
2022/04/24 04:07:09;;;;;;;;;;;6.90;99.90;;;;;;5006170;28;19922;-70
2022/04/24 04:09:34;;;;;;;;;;;6.90;99.90;;;;;;5010820;28;19925;-69
2022/04/24 04:12:00;;;;;;;;;;;6.90;99.90;;;;;;4995809;28;20025;-69
2022/04/24 04:14:25;;;;;;;;;;;6.80;99.90;;;;;;5012264;28;19968;-68
2022/04/24 04:16:51;;;;;;;;;;;6.80;99.90;;;;;;5007643;28;19945;-69
2022/04/24 04:19:17;;;;;;;;;;;8.20;99.90;;;;;;5005560;28;19991;-69
2022/04/24 04:21:43;;;;;;;;;;;6.80;99.90;;;;;;5002267;28;20342;-69
2022/04/24 04:24:09;;;;;;;;;;;6.80;99.90;;;;;;5005669;28;19925;-69
2022/04/24 04:26:37;;;;;;;;;;;6.80;99.90;;;;;;5009982;28;19944;-69
2022/04/24 04:29:03;;;;;;;;;;;6.80;99.90;;;;;;5011157;28;19921;-69
2022/04/24 04:31:28;;;;;;;;;;;6.70;99.90;;;;;;5000159;28;20395;-69
2022/04/24 04:33:54;;;;;;;;;;;6.70;99.90;;;;;;5008373;28;19922;-69
2022/04/24 04:36:20;;;;;;;;;;;6.70;99.90;;;;;;5005108;28;20445;-69
2022/04/24 04:38:45;;;;;;;;;;;6.70;99.90;;;;;;4991902;28;19928;-70
2022/04/24 04:41:11;;;;;;;;;;;8.20;99.90;;;;;;4992577;28;20016;-68
2022/04/24 04:43:36;;;;;;;;;;;6.90;99.90;;;;;;5007308;28;19972;-68
2022/04/24 04:46:02;;;;;;;;;;;6.80;99.90;;;;;;5008810;28;19921;-70
2022/04/24 04:48:28;;;;;;;;;;;6.70;99.90;;;;;;4995019;28;19922;-70
2022/04/24 04:50:54;;;;;;;;;;;6.70;99.90;;;;;;4999276;28;19921;-69
2022/04/24 04:53:19;;;;;;;;;;;6.80;99.90;;;;;;5001729;28;19999;-70
2022/04/24 04:55:45;;;;;;;;;;;6.80;99.90;;;;;;5010677;28;19922;-68
2022/04/24 04:58:11;;;;;;;;;;;6.90;99.90;;;;;;5007312;28;19980;-68
2022/04/24 05:00:36;;;;;;;;;;;6.90;99.90;;;;;;5007698;28;19926;-68
2022/04/24 05:03:02;;;;;;;;;;;6.90;99.90;;;;;;5011010;28;19921;-68
2022/04/24 05:05:27;;;;;;;;;;;6.90;99.90;;;;;;5001948;28;19929;-68
2022/04/24 05:07:53;;;;;;;;;;;7.10;99.90;;;;;;5005754;28;19921;-70
2022/04/24 05:10:19;;;;;;;;;;;6.90;99.90;;;;;;4999354;28;19922;-69
2022/04/24 05:12:44;;;;;;;;;;;7.00;99.90;;;;;;5018543;28;20331;-68
2022/04/24 05:15:13;;;;;;;;;;;7.00;99.90;;;;;;4997438;28;19922;-68
2022/04/24 05:17:39;;;;;;;;;;;7.00;99.90;;;;;;5001170;28;19921;-69
2022/04/24 05:20:05;;;;;;;;;;;7.10;99.90;;;;;;4992898;28;19928;-68
2022/04/24 05:22:31;;;;;;;;;;;7.10;99.90;;;;;;5007368;28;19918;-69
2022/04/24 05:24:57;;;;;;;;;;;7.10;99.90;;;;;;5008415;28;19928;-69
2022/04/24 05:27:22;;;;;;;;;;;7.20;99.90;;;;;;5005329;28;19949;-69
2022/04/24 05:29:48;;;;;;;;;;;7.20;99.90;;;;;;4995886;28;19997;-68
2022/04/24 05:32:14;;;;;;;;;;;8.00;99.90;;;;;;5012850;28;20292;-69
2022/04/24 05:34:39;;;;;;;;;;;7.20;99.90;;;;;;5015593;28;20008;-69
2022/04/24 05:37:05;;;;;;;;;;;7.30;99.90;;;;;;5006132;28;20391;-69
2022/04/24 05:39:31;;;;;;;;;;;7.30;99.90;;;;;;5024450;28;19929;-68
2022/04/24 05:41:57;;;;;;;;;;;7.30;99.90;;;;;;5003833;28;19921;-67
2022/04/24 05:44:22;;;;;;;;;;;7.50;99.90;;;;;;5014539;28;19931;-69
2022/04/24 05:46:48;;;;;;;;;;;7.70;99.90;;;;;;5010443;28;19929;-69
2022/04/24 05:49:13;;;;;;;;;;;7.70;99.90;;;;;;5006188;28;19925;-70
2022/04/24 05:51:39;;;;;;;;;;;7.70;99.90;;;;;;5009257;28;19929;-69
2022/04/24 05:54:05;;;;;;;;;;;7.80;99.90;;;;;;5025611;28;19925;-70
2022/04/24 05:56:30;;;;;;;;;;;7.90;99.90;;;;;;5011599;28;19937;-70
2022/04/24 05:58:56;;;;;;;;;;;9.30;99.90;;;;;;5003903;28;19975;-69
2022/04/24 06:01:21;;;;;;;;;;;8.20;99.90;;;;;;5006325;28;19921;-69
2022/04/24 06:03:48;;;;;;;;;;;8.30;99.90;;;;;;5009223;28;20355;-68
2022/04/24 06:06:13;;;;;;;;;;;8.40;99.90;;;;;;5007959;28;20007;-68
2022/04/24 06:08:39;;;;;;;;;;;8.60;99.90;;;;;;5011420;28;20017;-69
2022/04/24 06:11:04;;;;;;;;;;;8.70;99.90;;;;;;5009883;28;19922;-69
2022/04/24 06:13:30;;;;;;;;;;;8.90;99.90;;;;;;5009389;28;19922;-70
2022/04/24 06:15:57;;;;;;;;;;;9.00;99.90;;;;;;4998681;28;19922;-69
2022/04/24 06:18:26;;;;;;;;;;;10.40;99.90;;;;;;5014246;28;19929;-69
2022/04/24 06:20:52;;;;;;;;;;;9.50;99.90;;;;;;5002492;28;19968;-69
2022/04/24 06:23:18;;;;;;;;;;;9.90;99.90;;;;;;5002202;28;19933;-70
2022/04/24 06:25:43;;;;;;;;;;;10.30;99.90;;;;;;5006256;28;19932;-69
2022/04/24 06:28:09;;;;;;;;;;;10.70;99.90;;;;;;5013685;28;19928;-69
2022/04/24 06:30:40;;;;;;;;;;;11.00;99.90;;;;;;4999305;28;19921;-69
2022/04/24 06:33:10;;;;;;;;;;;11.10;99.90;;;;;;5008336;28;20023;-69
2022/04/24 06:35:36;;;;;;;;;;;11.40;99.90;;;;;;5010994;28;19928;-67
2022/04/24 06:38:02;;;;;;;;;;;11.50;99.90;;;;;;5007457;28;20382;-71
2022/04/24 06:40:28;;;;;;;;;;;11.50;99.90;;;;;;5009138;28;19976;-69
2022/04/24 06:42:57;;;;;;;;;;;11.40;99.90;;;;;;5000100;28;20288;-67
2022/04/24 06:45:30;;;;;;;;;;;11.60;99.90;;;;;;4994187;28;19991;-69
2022/04/24 06:47:56;;;;;;;;;;;11.40;99.90;;;;;;5007135;28;20056;-69
2022/04/24 06:50:22;;;;;;;;;;;11.30;99.90;;;;;;5008585;28;20376;-71
2022/04/24 06:52:55;;;;;;;;;;;11.20;99.90;;;;;;4997039;28;19929;-68
2022/04/24 06:55:21;;;;;;;;;;;11.20;99.90;;;;;;5009986;28;19928;-68
2022/04/24 06:57:47;;;;;;;;;;;11.50;99.90;;;;;;5011568;28;19921;-67
2022/04/24 07:00:16;;;;;;;;;;;11.60;99.90;;;;;;5008790;28;19921;-70
2022/04/24 07:02:44;;;;;;;;;;;11.50;99.90;;;;;;5006031;28;20433;-69
2022/04/24 07:05:10;;;;;;;;;;;12.70;99.90;;;;;;5012993;28;19921;-69
2022/04/24 07:07:36;;;;;;;;;;;11.40;99.90;;;;;;5011261;28;19944;-69
2022/04/24 07:10:02;;;;;;;;;;;11.40;99.90;;;;;;5004357;28;19928;-69
2022/04/24 07:12:28;;;;;;;;;;;11.50;99.90;;;;;;5002425;28;20017;-69
2022/04/24 07:14:53;;;;;;;;;;;11.60;99.90;;;;;;4999290;28;20354;-71
2022/04/24 07:17:19;;;;;;;;;;;11.60;99.90;;;;;;5008270;28;19921;-68
2022/04/24 07:19:44;;;;;;;;;;;11.70;99.90;;;;;;5016366;28;19944;-68
2022/04/24 07:22:10;;;;;;;;;;;11.70;99.90;;;;;;5006798;28;19976;-69
2022/04/24 07:24:35;;;;;;;;;;;11.60;99.90;;;;;;5010259;28;19979;-69
2022/04/24 07:27:01;;;;;;;;;;;11.80;99.90;;;;;;5007724;28;19926;-69
2022/04/24 07:29:26;;;;;;;;;;;11.80;99.90;;;;;;5016739;28;19922;-68
2022/04/24 07:31:53;;;;;;;;;;;12.00;99.90;;;;;;5005825;28;20370;-70
2022/04/24 07:34:18;;;;;;;;;;;12.10;99.90;;;;;;5007237;28;19956;-70
2022/04/24 07:36:44;;;;;;;;;;;12.30;99.90;;;;;;5006031;28;20395;-68
2022/04/24 07:39:09;;;;;;;;;;;12.20;99.50;;;;;;5013768;28;19925;-70
2022/04/24 07:41:35;;;;;;;;;;;12.20;99.10;;;;;;5011367;28;19976;-70
2022/04/24 07:44:04;;;;;;;;;;;12.20;99.70;;;;;;5002315;28;19928;-68
2022/04/24 07:46:31;;;;;;;;;;;12.20;99.60;;;;;;5008834;28;19921;-69
2022/04/24 07:48:56;;;;;;;;;;;12.20;99.50;;;;;;5011788;28;19922;-69
2022/04/24 07:51:23;;;;;;;;;;;12.20;99.20;;;;;;5011774;28;19921;-71
2022/04/24 07:53:48;;;;;;;;;;;12.30;99.30;;;;;;5018717;28;19939;-70
2022/04/24 07:56:14;;;;;;;;;;;12.50;99.40;;;;;;5006986;28;19925;-69
2022/04/24 07:58:39;;;;;;;;;;;12.60;99.60;;;;;;5011170;28;19925;-69
2022/04/24 08:01:06;;;;;;;;;;;12.80;99.40;;;;;;5013872;28;20394;-70
2022/04/24 08:03:31;;;;;;;;;;;12.80;98.80;;;;;;5004334;28;19930;-69
2022/04/24 08:05:57;;;;;;;;;;;12.90;98.40;;;;;;5004936;28;19933;-70
2022/04/24 08:08:24;;;;;;;;;;;12.90;98.30;;;;;;5011723;28;19976;-69
2022/04/24 08:10:54;;;;;;;;;;;12.90;98.10;;;;;;5018527;28;19921;-69
2022/04/24 08:13:20;;;;;;;;;;;12.80;98.10;;;;;;5023843;28;19925;-70
2022/04/24 08:15:49;;;;;;;;;;;12.90;98.10;;;;;;4999460;28;19925;-69
2022/04/24 08:18:15;;;;;;;;;;;13.00;98.00;;;;;;5024759;28;19929;-69
2022/04/24 08:20:41;;;;;;;;;;;13.20;97.50;;;;;;4999041;28;19921;-68
2022/04/24 08:23:08;;;;;;;;;;;13.30;97.70;;;;;;5011527;28;19971;-70
2022/04/24 08:25:37;;;;;;;;;;;13.40;97.70;;;;;;4998344;28;19968;-70
2022/04/24 08:28:06;;;;;;;;;;;13.50;97.20;;;;;;4995537;28;19929;-70
2022/04/24 08:30:33;;;;;;;;;;;13.40;96.50;;;;;;5007266;28;19964;-71
2022/04/24 08:33:07;;;;;;;;;;;13.50;96.60;;;;;;5002793;28;19921;-70
2022/04/24 08:35:33;;;;;;;;;;;13.50;96.40;;;;;;5011123;28;19921;-70
2022/04/24 08:37:58;;;;;;;;;;;13.70;96.20;;;;;;4998095;28;20295;-70
2022/04/24 08:40:24;;;;;;;;;;;14.00;95.90;;;;;;5005307;28;19957;-69
2022/04/24 08:42:51;;;;;;;;;;;13.90;95.60;;;;;;4998597;28;20350;-69
2022/04/24 08:45:16;;;;;;;;;;;14.00;95.20;;;;;;5008526;28;19937;-70
2022/04/24 08:47:42;;;;;;;;;;;14.00;95.30;;;;;;5004359;28;19921;-69
2022/04/24 08:50:09;;;;;;;;;;;14.00;95.00;;;;;;5012018;28;20302;-69
2022/04/24 08:52:34;;;;;;;;;;;14.20;96.00;;;;;;5006465;28;19925;-70
2022/04/24 08:55:02;;;;;;;;;;;14.30;95.50;;;;;;5006634;28;19922;-70
2022/04/24 08:57:30;;;;;;;;;;;14.30;95.80;;;;;;5000868;28;19922;-70
2022/04/24 08:59:59;;;;;;;;;;;14.40;95.20;;;;;;4999246;28;19922;-70
2022/04/24 09:02:25;;;;;;;;;;;14.50;95.10;;;;;;5008087;28;19922;-69
2022/04/24 09:04:54;;;;;;;;;;;14.40;94.70;;;;;;5010958;28;19921;-68
2022/04/24 09:07:20;;;;;;;;;;;14.30;94.80;;;;;;5000414;28;20312;-69
2022/04/24 09:09:47;;;;;;;;;;;14.40;95.50;;;;;;5006928;28;20361;-68
2022/04/24 09:12:14;;;;;;;;;;;14.40;94.90;;;;;;5007814;28;19922;-70
2022/04/24 09:14:39;;;;;;;;;;;14.50;94.20;;;;;;4991957;28;19968;-70
2022/04/24 09:17:06;;;;;;;;;;;14.50;93.60;;;;;;5009934;28;19925;-70
2022/04/24 09:19:31;;;;;;;;;;;14.50;94.60;;;;;;5002868;28;19925;-70
2022/04/24 09:22:01;;;;;;;;;;;14.60;93.90;;;;;;5004815;28;19921;-70
2022/04/24 09:24:43;;;;;;;;;;;14.40;93.50;;;;;;5024257;28;19922;-69
2022/04/24 09:27:09;;;;;;;;;;;14.50;93.80;;;;;;5004983;28;19930;-70
2022/04/24 09:29:36;;;;;;;;;;;14.60;93.50;;;;;;5000159;28;19968;-69
2022/04/24 09:32:08;;;;;;;;;;;14.60;93.50;;;;;;5008260;28;19964;-69
2022/04/24 09:34:35;;;;;;;;;;;14.50;92.60;;;;;;5009015;28;20037;-70
2022/04/24 09:37:02;;;;;;;;;;;14.70;92.90;;;;;;4999735;28;19928;-70
2022/04/24 09:39:28;;;;;;;;;;;14.80;92.50;;;;;;5002417;28;19926;-69
2022/04/24 09:42:10;;;;;;;;;;;15.00;92.20;;;;;;5002541;28;20063;-70
2022/04/24 09:44:37;;;;;;;;;;;15.10;92.10;;;;;;5007494;28;19929;-69
2022/04/24 09:47:02;;;;;;;;;;;15.10;91.90;;;;;;5009839;28;20260;-68
2022/04/24 09:49:29;;;;;;;;;;;15.20;92.00;;;;;;5006955;28;19969;-69
2022/04/24 09:51:55;;;;;;;;;;;15.20;91.20;;;;;;4994388;28;19952;-68
2022/04/24 09:54:21;;;;;;;;;;;15.30;91.30;;;;;;5006606;28;19921;-68
2022/04/24 09:56:49;;;;;;;;;;;15.40;91.30;;;;;;4997568;28;20463;-69
2022/04/24 09:59:14;;;;;;;;;;;15.50;91.10;;;;;;5003641;28;19928;-69
2022/04/24 10:01:40;;;;;;;;;;;15.50;91.30;;;;;;5006853;28;19921;-70
2022/04/24 10:04:07;;;;;;;;;;;15.80;91.00;;;;;;5010276;28;20387;-69
2022/04/24 10:06:33;;;;;;;;;;;15.70;90.90;;;;;;5001976;28;19921;-67
2022/04/24 10:09:05;;;;;;;;;;;15.80;90.50;;;;;;4993810;28;19940;-69
2022/04/24 10:11:30;;;;;;;;;;;16.00;90.00;;;;;;5000248;28;19921;-68
2022/04/24 10:14:01;;;;;;;;;;;15.90;89.50;;;;;;5002445;28;19933;-68
2022/04/24 10:16:42;;;;;;;;;;;16.10;89.40;;;;;;4988833;28;19925;-69
2022/04/24 10:19:19;;;;;;;;;;;16.40;89.60;;;;;;5012935;28;19925;-69
2022/04/24 10:21:51;;;;;;;;;;;16.30;86.60;;;;;;5011355;28;20298;-69
2022/04/24 10:24:17;;;;;;;;;;;16.30;87.90;;;;;;5013009;28;19928;-68
2022/04/24 10:27:01;;;;;;;;;;;16.10;87.70;;;;;;5011606;28;19921;-69
2022/04/24 10:29:28;;;;;;;;;;;16.20;87.40;;;;;;5015143;28;19929;-69
2022/04/24 10:31:54;;;;;;;;;;;16.40;87.90;;;;;;5011970;28;19921;-69
2022/04/24 10:34:20;;;;;;;;;;;16.60;88.10;;;;;;5007242;28;19928;-68
2022/04/24 10:36:56;;;;;;;;;;;16.70;86.90;;;;;;5012365;28;20291;-68
2022/04/24 10:39:23;;;;;;;;;;;17.20;86.40;;;;;;5012570;28;19922;-68
2022/04/24 10:41:52;;;;;;;;;;;17.40;84.40;;;;;;4996824;28;19922;-69
2022/04/24 10:44:18;;;;;;;;;;;17.30;83.00;;;;;;5001428;28;19929;-70
2022/04/24 10:46:46;;;;;;;;;;;17.40;82.60;;;;;;5013072;28;19925;-69
2022/04/24 10:49:13;;;;;;;;;;;17.20;80.20;;;;;;5009958;28;19972;-70
2022/04/24 10:51:40;;;;;;;;;;;17.40;78.40;;;;;;4987494;28;19976;-68
2022/04/24 10:54:09;;;;;;;;;;;17.20;78.50;;;;;;5023521;28;19926;-68
2022/04/24 10:56:36;;;;;;;;;;;17.10;79.80;;;;;;4994819;28;20697;-68
2022/04/24 10:59:09;;;;;;;;;;;17.10;80.70;;;;;;5026532;28;19925;-69
2022/04/24 11:01:35;;;;;;;;;;;17.30;80.00;;;;;;5009358;28;19932;-68
2022/04/24 11:04:05;;;;;;;;;;;17.50;81.00;;;;;;5007464;28;20640;-68
2022/04/24 11:06:31;;;;;;;;;;;17.80;82.30;;;;;;4986043;28;19932;-69
2022/04/24 11:09:05;;;;;;;;;;;17.30;80.80;;;;;;5008992;28;19925;-69
2022/04/24 11:11:33;;;;;;;;;;;17.50;81.60;;;;;;5011631;28;20303;-68
2022/04/24 11:14:00;;;;;;;;;;;17.30;80.70;;;;;;5001010;28;19926;-69
2022/04/24 11:16:25;;;;;;;;;;;17.30;83.30;;;;;;5003778;28;19925;-68
2022/04/24 11:18:52;;;;;;;;;;;17.40;82.40;;;;;;5008465;28;20387;-69
2022/04/24 11:21:21;;;;;;;;;;;17.20;79.90;;;;;;5006153;28;19926;-68
2022/04/24 11:23:47;;;;;;;;;;;17.20;80.90;;;;;;5006503;28;19999;-69
2022/04/24 11:26:12;;;;;;;;;;;17.10;81.10;;;;;;5005258;28;20458;-68
2022/04/24 11:28:39;;;;;;;;;;;17.30;80.80;;;;;;5008550;28;19921;-69
2022/04/24 11:31:18;;;;;;;;;;;17.00;82.10;;;;;;5008380;28;19984;-69
2022/04/24 11:33:50;;;;;;;;;;;17.30;81.30;;;;;;5005861;28;19921;-68
2022/04/24 11:36:16;;;;;;;;;;;17.50;81.60;;;;;;5011174;28;20004;-68
2022/04/24 11:38:44;;;;;;;;;;;17.30;82.00;;;;;;5008383;28;20044;-69
2022/04/24 11:41:11;;;;;;;;;;;17.50;81.40;;;;;;5007357;28;19921;-68
2022/04/24 11:43:41;;;;;;;;;;;17.50;81.60;;;;;;5010683;28;19921;-67
2022/04/24 11:51:35;;;;;;;;;;;17.20;81.00;;;;;;5003350;28;19925;-67
2022/04/24 11:54:01;;;;;;;;;;;16.90;82.30;;;;;;5013626;28;19921;-69
2022/04/24 11:56:27;;;;;;;;;;;16.80;83.20;;;;;;5007637;28;20334;-68
2022/04/24 11:59:09;;;;;;;;;;;17.10;84.70;;;;;;5001159;28;20001;-67
2022/04/24 12:01:35;;;;;;;;;;;17.40;83.20;;;;;;5010287;28;20410;-69
2022/04/24 12:04:00;;;;;;;;;;;17.20;81.00;;;;;;5000175;28;19925;-68
2022/04/24 12:06:30;;;;;;;;;;;16.50;83.30;;;;;;5001683;28;20032;-69
2022/04/24 12:08:56;;;;;;;;;;;16.60;85.20;;;;;;5012310;28;19921;-68
2022/04/24 12:11:29;;;;;;;;;;;16.90;82.40;;;;;;5018137;28;19941;-68
2022/04/24 12:13:57;;;;;;;;;;;16.80;84.70;;;;;;5013613;28;20012;-67
2022/04/24 12:16:23;;;;;;;;;;;16.60;82.80;;;;;;5010780;28;19995;-68
2022/04/24 12:18:53;;;;;;;;;;;16.80;83.60;;;;;;4998096;28;20612;-69
2022/04/24 12:21:19;;;;;;;;;;;16.50;82.80;;;;;;4998473;28;19970;-69
2022/04/24 12:23:48;;;;;;;;;;;16.60;83.40;;;;;;5001699;28;19922;-67
2022/04/24 12:26:14;;;;;;;;;;;16.70;83.40;;;;;;5008390;28;19921;-68
2022/04/24 12:28:40;;;;;;;;;;;16.90;83.90;;;;;;5009794;28;19952;-67
2022/04/24 12:31:06;;;;;;;;;;;17.00;83.40;;;;;;5009761;28;19928;-67
2022/04/24 12:33:32;;;;;;;;;;;16.80;83.10;;;;;;5012433;28;19925;-68
2022/04/24 12:36:08;;;;;;;;;;;16.90;83.30;;;;;;5016791;28;19921;-68
2022/04/24 12:38:34;;;;;;;;;;;16.80;83.90;;;;;;5010338;28;20371;-67
2022/04/24 12:41:07;;;;;;;;;;;16.80;81.70;;;;;;5022469;28;19928;-68
2022/04/24 12:43:33;;;;;;;;;;;16.10;83.70;;;;;;5012959;28;19921;-68
2022/04/24 12:45:59;;;;;;;;;;;16.60;83.50;;;;;;5012458;28;20241;-67
2022/04/24 12:48:25;;;;;;;;;;;16.80;82.80;;;;;;5011953;28;19948;-68
2022/04/24 12:50:51;;;;;;;;;;;17.30;84.40;;;;;;5006520;28;19921;-69
2022/04/24 12:53:20;;;;;;;;;;;17.40;84.20;;;;;;5011099;28;19941;-69
2022/04/24 12:55:46;;;;;;;;;;;17.50;82.30;;;;;;5010973;28;19921;-68
2022/04/24 12:58:14;;;;;;;;;;;18.30;82.40;;;;;;5009420;28;19983;-68
2022/04/24 13:00:40;;;;;;;;;;;17.70;81.20;;;;;;5009404;28;20443;-69
2022/04/24 13:03:08;;;;;;;;;;;17.50;82.00;;;;;;5011119;28;19925;-69
2022/04/24 13:05:35;;;;;;;;;;;17.60;81.50;;;;;;5010234;28;19925;-69
2022/04/24 13:08:01;;;;;;;;;;;17.40;82.10;;;;;;5011156;28;20341;-69
2022/04/24 13:10:26;;;;;;;;;;;17.30;81.60;;;;;;5010925;28;19921;-69
2022/04/24 13:12:52;;;;;;;;;;;17.50;81.60;;;;;;5005994;28;19921;-69
2022/04/24 13:15:18;;;;;;;;;;;17.50;81.20;;;;;;5010174;28;20367;-69
2022/04/24 13:20:27;;;;;;;;;;;17.90;81.20;;;;;;5011187;28;20272;-69
2022/04/24 13:22:53;;;;;;;;;;;18.20;79.60;;;;;;5009503;28;19967;-69
2022/04/24 13:25:18;;;;;;;;;;;18.20;78.00;;;;;;5005077;28;20276;-69
2022/04/24 13:27:44;;;;;;;;;;;18.40;79.40;;;;;;5008802;28;19930;-69
2022/04/24 13:30:10;;;;;;;;;;;18.60;77.50;;;;;;5021218;28;20000;-68
2022/04/24 13:32:35;;;;;;;;;;;18.50;77.50;;;;;;5008936;28;20314;-68
2022/04/24 13:35:01;;;;;;;;;;;18.10;76.30;;;;;;5009960;28;19932;-69
2022/04/24 13:40:14;;;;;;;;;;;18.10;77.90;;;;;;5009675;28;19929;-68
2022/04/24 13:42:40;;;;;;;;;;;18.40;76.00;;;;;;5007625;28;19936;-69
2022/04/24 13:45:05;;;;;;;;;;;18.20;75.10;;;;;;5003166;28;19925;-68
2022/04/24 13:47:31;;;;;;;;;;;18.40;75.90;;;;;;5005540;28;19921;-69
2022/04/24 13:49:56;;;;;;;;;;;18.10;75.40;;;;;;5008880;28;20008;-68
2022/04/24 13:52:22;;;;;;;;;;;18.00;76.20;;;;;;5009253;28;20012;-68
2022/04/24 13:54:48;;;;;;;;;;;18.10;75.80;;;;;;5008702;28;20015;-68
2022/04/24 13:57:13;;;;;;;;;;;18.80;76.40;;;;;;5002800;28;19922;-69
2022/04/24 13:59:42;;;;;;;;;;;17.90;76.10;;;;;;5003999;28;20001;-68
2022/04/24 14:02:08;;;;;;;;;;;17.60;78.50;;;;;;5004598;28;20911;-68
2022/04/24 14:04:33;;;;;;;;;;;17.50;80.20;;;;;;5004411;28;19928;-69
2022/04/24 14:06:59;;;;;;;;;;;17.60;76.90;;;;;;5005707;28;20414;-69
2022/04/24 14:09:25;;;;;;;;;;;17.40;77.80;;;;;;5011083;28;19925;-70
2022/04/24 14:11:50;;;;;;;;;;;17.70;77.70;;;;;;5009191;28;20335;-68
2022/04/24 14:14:16;;;;;;;;;;;17.90;77.50;;;;;;5007604;28;19921;-69
2022/04/24 14:16:41;;;;;;;;;;;18.10;77.40;;;;;;5011480;28;19929;-68
2022/04/24 14:19:07;;;;;;;;;;;17.90;76.40;;;;;;5014116;28;19921;-69
2022/04/24 14:21:32;;;;;;;;;;;17.90;78.00;;;;;;5010006;28;20375;-68
2022/04/24 14:23:58;;;;;;;;;;;18.00;76.90;;;;;;5009204;28;19932;-68
2022/04/24 14:26:23;;;;;;;;;;;17.00;78.20;;;;;;5012896;28;20279;-69
2022/04/24 14:28:49;;;;;;;;;;;16.40;80.60;;;;;;5012542;28;20032;-69
2022/04/24 14:31:14;;;;;;;;;;;15.90;83.00;;;;;;5008261;28;19928;-69